Pagrindinis puslapis
METAR-TAF:

METAR-TAF

Oro uostai :

Tarptautinis Philip S. W. Goldson oro uostas

Belizas, Belizas

platuma: 17-32N, ilguma: 088-18W, Aukštis: 5 m

Dabartinis oras

Ataskaita buvo paskelbta 16 minutes, ne 21:00 UTC
Vėjas 6 kt iš Rytų
Temperatūra 29°C
Drėgmė 66%
Slėgis 1012 hPa
Matomumas 10 km arba daugiau
Išsisklaidę debesys ne aukštis 3000 ft
Išsisklaidę debesys ne aukštis 4500 ft

METAR: MZBZ 092100Z 08006KT 9999 SCT030 SCT045 29/22 A2990 Q1012 NOSIG

Laikas: 15:16 (21:16 UTC)

Prognozė

Ataskaita buvo paskelbta 6 valandos ir 16 minutes, ne 15:00 UTC
Prognozė galioja nuo 09 metu 18 UTC su 10 metu 18 UTC
Vėjas 7 kt iš Rytų
Matomumas 10 km arba daugiau
Mažai debesys ne aukštis 2400 ft
Tapsmas
nuo 10 metu 05 UTC su 10 metu 07 UTC
Vėjas 3 kt iš Šiaurės Vakarų

TAF: MZBZ 091500Z 0918/1018 09007KT 9999 FEW024 BECMG 1005/1007 32003KT

Orai ataskaitas ir orų prognozės (METAR, TAF).

turimą stotys yra geltonos ir raudonos taškus žemėlapyje.

Perkelti pele per norėdami pamatyti stoties vardą.

Tada spustelėkite, norėdami matyti oro stebėjimo ir prognozės.

Norėdami pakeisti žemėlapį: spustelėkite ant žalios mygtukų su juodo kryžiaus žemyn,; žalią mygtuką su brūkšneliu, jei norite nutolinti; arba žalių rodyklių gretimoms žemėlapius.


METAR-TAF: